createdAt,value
2023-11-13T00:02:51.660Z,6.30
2023-11-13T00:05:54.403Z,5.45
2023-11-13T00:08:57.106Z,7.53
2023-11-13T00:12:00.010Z,5.63
2023-11-13T00:15:05.297Z,3.88
2023-11-13T00:18:08.418Z,7.88
2023-11-13T00:21:12.597Z,8.13
2023-11-13T00:24:15.342Z,9.20
2023-11-13T00:27:18.138Z,9.07
2023-11-13T00:30:21.528Z,3.88
2023-11-13T00:33:24.239Z,4.90
2023-11-13T00:36:26.998Z,10.40
2023-11-13T00:39:31.659Z,6.78
2023-11-13T00:42:34.405Z,17.83
2023-11-13T00:45:37.348Z,12.95
2023-11-13T00:48:41.503Z,6.53
2023-11-13T00:51:44.397Z,10.23
2023-11-13T00:54:47.179Z,7.43
2023-11-13T00:57:50.216Z,7.38
2023-11-13T01:00:53.035Z,9.15
2023-11-13T01:03:56.150Z,5.57
2023-11-13T01:06:59.216Z,5.00
2023-11-13T01:10:02.034Z,5.03
2023-11-13T01:13:04.852Z,4.90
2023-11-13T01:16:07.955Z,8.23
2023-11-13T01:19:10.801Z,7.38
2023-11-13T01:22:13.702Z,12.10
2023-11-13T01:25:16.576Z,5.30
2023-11-13T01:28:19.468Z,7.10
2023-11-13T01:31:22.766Z,8.23
2023-11-13T01:34:26.002Z,4.00
2023-11-13T01:37:28.728Z,7.85
2023-11-13T01:40:33.002Z,6.72
2023-11-13T01:43:35.764Z,10.55
2023-11-13T01:46:38.864Z,7.40
2023-11-13T01:49:42.584Z,9.55
2023-11-13T01:52:45.736Z,9.73
2023-11-13T01:55:48.842Z,11.90
2023-11-13T01:58:52.626Z,8.00
2023-11-13T02:01:56.579Z,6.93
2023-11-13T02:04:59.319Z,11.67
2023-11-13T02:08:02.159Z,13.15
2023-11-13T02:11:07.828Z,15.98
2023-11-13T02:14:10.704Z,14.77
2023-11-13T02:17:13.418Z,15.93
2023-11-13T02:20:16.126Z,15.38
2023-11-13T02:23:19.436Z,17.80
2023-11-13T02:26:25.309Z,18.40
2023-11-13T02:29:28.356Z,8.68
2023-11-13T02:32:31.057Z,7.95
2023-11-13T02:35:33.989Z,8.87
2023-11-13T02:38:38.244Z,8.35
2023-11-13T02:41:41.000Z,5.72
2023-11-13T02:44:43.838Z,5.55
2023-11-13T02:47:46.577Z,7.70
2023-11-13T02:50:53.139Z,6.22
2023-11-13T02:53:57.167Z,5.78
2023-11-13T02:56:59.913Z,5.43
2023-11-13T03:00:02.749Z,7.35
2023-11-13T03:03:05.556Z,8.45
2023-11-13T03:06:08.451Z,5.27
2023-11-13T03:09:12.198Z,7.40
2023-11-13T03:12:14.946Z,7.05
2023-11-13T03:15:17.759Z,10.20
2023-11-13T03:18:20.578Z,10.18
2023-11-13T03:21:24.635Z,8.13
2023-11-13T03:24:27.403Z,8.98
2023-11-13T03:27:30.103Z,4.00
2023-11-13T03:30:33.499Z,7.93
2023-11-13T03:33:36.637Z,4.85
2023-11-13T03:36:39.476Z,7.37
2023-11-13T03:39:43.643Z,6.63
2023-11-13T03:42:46.313Z,6.90
2023-11-13T03:45:49.091Z,8.45
2023-11-13T03:48:51.816Z,4.53
2023-11-13T03:51:55.808Z,9.00
2023-11-13T03:54:58.946Z,8.63
2023-11-13T03:58:01.702Z,7.73
2023-11-13T04:01:04.650Z,7.88
2023-11-13T04:04:07.503Z,9.63
2023-11-13T04:07:10.584Z,6.47
2023-11-13T04:10:16.384Z,7.00
2023-11-13T04:13:21.329Z,8.75
2023-11-13T04:16:24.221Z,6.47
2023-11-13T04:19:31.148Z,9.75
2023-11-13T04:22:35.077Z,14.60
2023-11-13T04:25:37.805Z,7.47
2023-11-13T04:28:41.571Z,7.50
2023-11-13T04:31:46.244Z,6.90
2023-11-13T04:34:48.994Z,7.70
2023-11-13T04:37:51.659Z,5.97
2023-11-13T04:40:54.448Z,7.25
2023-11-13T04:43:57.177Z,6.03
2023-11-13T04:47:00.031Z,4.80
2023-11-13T04:50:06.808Z,6.85
2023-11-13T04:53:09.600Z,5.30
2023-11-13T04:56:13.152Z,7.43
2023-11-13T04:59:15.847Z,7.43
2023-11-13T05:02:20.114Z,5.57
2023-11-13T05:05:22.840Z,9.40
2023-11-13T05:08:26.727Z,3.27
2023-11-13T05:11:29.410Z,6.70
2023-11-13T05:14:32.124Z,2.28
2023-11-13T05:17:38.612Z,3.13
2023-11-13T05:20:47.049Z,5.50
2023-11-13T05:23:51.039Z,10.13
2023-11-13T05:26:54.935Z,8.65
2023-11-13T05:29:57.705Z,8.30
2023-11-13T05:33:00.715Z,10.77
2023-11-13T05:36:03.861Z,6.80
2023-11-13T05:39:09.094Z,4.47
2023-11-13T05:42:11.838Z,7.72
2023-11-13T05:45:16.085Z,9.02
2023-11-13T05:48:18.927Z,7.28
2023-11-13T05:51:22.531Z,6.70
2023-11-13T05:54:26.005Z,11.55
2023-11-13T05:57:28.800Z,7.53
2023-11-13T06:00:32.394Z,7.73
2023-11-13T06:03:35.200Z,7.28
2023-11-13T06:06:38.018Z,6.50
2023-11-13T06:09:43.611Z,7.17
2023-11-13T06:12:46.463Z,6.45
2023-11-13T06:15:49.343Z,5.70
2023-11-13T06:18:52.344Z,7.97
2023-11-13T06:21:55.426Z,6.72
2023-11-13T06:24:58.621Z,8.15
2023-11-13T06:28:01.689Z,9.13
2023-11-13T06:31:04.643Z,12.73
2023-11-13T06:34:09.272Z,8.43
2023-11-13T06:37:12.015Z,5.10
2023-11-13T06:40:18.414Z,7.73
2023-11-13T06:43:21.752Z,10.60
2023-11-13T06:46:24.542Z,12.13
2023-11-13T06:49:27.584Z,10.65
2023-11-13T06:52:32.789Z,9.15
2023-11-13T06:55:35.765Z,8.15
2023-11-13T06:58:38.922Z,14.60
2023-11-13T07:01:44.785Z,13.53
2023-11-13T07:04:47.652Z,7.38
2023-11-13T07:07:52.256Z,42.05
2023-11-13T07:10:55.521Z,22.87
2023-11-13T07:13:58.229Z,11.20
2023-11-13T07:17:01.225Z,6.03
2023-11-13T07:20:07.909Z,12.98
2023-11-13T07:23:17.965Z,8.93
2023-11-13T07:26:20.896Z,7.65
2023-11-13T07:29:23.668Z,7.90
2023-11-13T07:32:26.526Z,14.23
2023-11-13T07:35:29.751Z,5.50
2023-11-13T07:38:32.600Z,5.90
2023-11-13T07:41:35.285Z,8.73
2023-11-13T07:44:40.246Z,8.70
2023-11-13T07:47:43.929Z,4.63
2023-11-13T07:50:57.239Z,5.85
2023-11-13T07:54:02.016Z,9.98
2023-11-13T07:57:05.353Z,8.70
2023-11-13T08:00:11.484Z,9.57
2023-11-13T08:03:19.974Z,5.07
2023-11-13T08:06:22.698Z,6.55
2023-11-13T08:09:25.385Z,7.90
2023-11-13T08:12:30.259Z,4.97
2023-11-13T08:15:33.465Z,6.95
2023-11-13T08:18:36.359Z,6.38
2023-11-13T08:21:39.034Z,6.85
2023-11-13T08:24:43.062Z,8.32
2023-11-13T08:27:47.875Z,5.07
2023-11-13T08:30:50.585Z,8.32
2023-11-13T08:33:56.569Z,6.20
2023-11-13T08:37:01.862Z,7.00
2023-11-13T08:40:06.852Z,5.70
2023-11-13T08:43:12.823Z,3.63
2023-11-13T08:46:16.271Z,5.30
2023-11-13T08:49:19.000Z,6.05
2023-11-13T08:52:21.772Z,5.75
2023-11-13T08:55:26.267Z,5.18
2023-11-13T08:58:29.174Z,5.78
2023-11-13T09:01:32.288Z,6.43
2023-11-13T09:04:36.200Z,4.83
2023-11-13T09:07:39.177Z,5.25
2023-11-13T09:10:46.196Z,6.65
2023-11-13T09:13:49.340Z,7.13
2023-11-13T09:16:52.279Z,3.72
2023-11-13T09:19:55.122Z,5.07
2023-11-13T09:23:01.162Z,3.72
2023-11-13T09:26:06.038Z,2.03
2023-11-13T09:29:12.076Z,8.15
2023-11-13T09:32:15.661Z,6.25
2023-11-13T09:35:25.722Z,5.03
2023-11-13T09:38:32.518Z,4.80
2023-11-13T09:41:40.216Z,5.95
2023-11-13T09:44:53.836Z,5.90
2023-11-13T09:48:05.534Z,3.78
2023-11-13T09:51:16.622Z,4.70
2023-11-13T09:54:30.188Z,5.32
2023-11-13T09:57:33.988Z,6.97
2023-11-13T10:00:37.317Z,11.20
2023-11-13T10:03:40.222Z,5.88
2023-11-13T10:06:53.435Z,11.37
2023-11-13T10:10:04.147Z,3.88
2023-11-13T10:13:11.463Z,3.30
2023-11-13T10:16:24.058Z,5.20
2023-11-13T10:19:27.854Z,5.68
2023-11-13T10:22:30.547Z,7.10
2023-11-13T10:25:58.821Z,6.22
2023-11-13T10:29:19.036Z,4.85
2023-11-13T11:26:35.184Z,3.22
2023-11-13T11:29:42.005Z,4.03
2023-11-13T11:32:56.462Z,2.75
2023-11-13T11:35:59.687Z,0.73
2023-11-13T11:39:13.244Z,2.42
2023-11-13T11:42:28.538Z,1.45
2023-11-13T11:45:31.280Z,3.40
2023-11-13T11:48:36.449Z,3.15
2023-11-13T11:51:40.227Z,3.85
2023-11-13T11:54:43.005Z,4.88
2023-11-13T11:57:47.218Z,3.70
2023-11-13T12:00:50.015Z,2.55
2023-11-13T12:03:53.848Z,5.60
2023-11-13T12:06:57.350Z,6.00
2023-11-13T12:10:01.493Z,8.93
2023-11-13T12:13:05.200Z,6.32
2023-11-13T12:16:08.186Z,1.53
2023-11-13T12:19:11.798Z,4.55
2023-11-13T12:22:14.590Z,6.05
2023-11-13T12:25:17.715Z,7.22
2023-11-13T12:28:22.357Z,2.97
2023-11-13T12:31:25.464Z,5.90
2023-11-13T12:34:31.779Z,3.33
2023-11-13T12:37:35.584Z,10.23
2023-11-13T12:40:38.918Z,6.05
2023-11-13T12:43:44.793Z,7.03
2023-11-13T12:46:49.357Z,5.90
2023-11-13T12:49:52.731Z,5.60
2023-11-13T12:52:56.738Z,10.10
2023-11-13T12:55:59.523Z,3.53
2023-11-13T12:59:02.319Z,5.50
2023-11-13T13:02:05.875Z,3.70
2023-11-13T13:05:22.942Z,6.90
2023-11-13T13:08:33.133Z,5.67
2023-11-13T13:11:39.604Z,2.22
2023-11-13T13:14:42.856Z,5.15
2023-11-13T13:17:45.798Z,8.63
2023-11-13T13:20:48.991Z,6.35
2023-11-13T13:23:51.688Z,6.22
2023-11-13T13:26:57.177Z,3.47
2023-11-13T13:29:59.996Z,2.38
2023-11-13T13:33:07.459Z,4.95
2023-11-13T13:36:10.780Z,3.58
2023-11-13T13:39:16.156Z,1.33
2023-11-13T13:42:19.049Z,4.30
2023-11-13T13:45:26.320Z,5.85
2023-11-13T13:48:33.219Z,7.83
2023-11-13T13:51:39.108Z,7.10
2023-11-13T13:54:42.344Z,4.22
2023-11-13T13:57:46.994Z,5.22
2023-11-13T14:00:50.571Z,4.13
2023-11-13T14:03:56.730Z,5.25
2023-11-13T14:07:01.897Z,4.47
2023-11-13T14:10:04.841Z,3.27
2023-11-13T14:13:07.605Z,2.67
2023-11-13T14:16:10.809Z,2.45
2023-11-13T14:19:15.822Z,6.20
2023-11-13T14:22:23.210Z,3.30
2023-11-13T14:25:28.228Z,3.08
2023-11-13T14:28:32.330Z,3.70
2023-11-13T14:31:35.163Z,3.03
2023-11-13T14:34:38.616Z,3.13
2023-11-13T14:37:41.396Z,2.97
2023-11-13T14:40:44.148Z,5.43
2023-11-13T14:43:46.980Z,3.22
2023-11-13T14:46:50.716Z,5.05
2023-11-13T14:49:53.435Z,5.63
2023-11-13T14:52:56.779Z,2.50
2023-11-13T14:56:00.048Z,3.63
2023-11-13T14:59:07.116Z,2.22
2023-11-13T15:02:10.754Z,3.55
2023-11-13T15:05:13.588Z,8.93
2023-11-13T15:08:18.193Z,12.68
2023-11-13T15:11:21.740Z,7.70
2023-11-13T15:14:24.494Z,7.07
2023-11-13T15:17:30.563Z,9.23
2023-11-13T15:20:35.542Z,6.50
2023-11-13T15:23:46.161Z,6.70
2023-11-13T15:26:49.935Z,6.00
2023-11-13T15:29:52.660Z,7.63
2023-11-13T15:33:01.107Z,13.85
2023-11-13T15:36:04.142Z,21.65
2023-11-13T15:39:09.973Z,20.67
2023-11-13T15:42:13.572Z,15.50
2023-11-13T15:45:16.349Z,17.20
2023-11-13T15:48:19.015Z,28.10
2023-11-13T15:51:21.722Z,13.53
2023-11-13T15:54:24.595Z,17.05
2023-11-13T15:57:27.783Z,23.23
2023-11-13T16:00:30.986Z,24.88
2023-11-13T16:03:40.324Z,16.33
2023-11-13T16:06:47.155Z,18.02
2023-11-13T16:09:50.082Z,6.32
2023-11-13T16:12:53.290Z,3.80
2023-11-13T16:15:55.977Z,84.55
2023-11-13T16:18:58.781Z,63.60
2023-11-13T16:22:01.521Z,39.70
2023-11-13T16:25:08.429Z,24.60
2023-11-13T16:28:11.808Z,23.15
2023-11-13T16:31:14.637Z,12.45
2023-11-13T16:34:19.541Z,13.02
2023-11-13T16:37:22.435Z,13.10
2023-11-13T16:40:25.256Z,9.30
2023-11-13T16:43:28.055Z,8.80
2023-11-13T16:46:30.761Z,13.38
2023-11-13T16:49:35.721Z,15.57
2023-11-13T16:52:39.545Z,24.80
2023-11-13T16:55:42.500Z,46.38
2023-11-13T16:58:45.247Z,31.92
2023-11-13T17:01:48.367Z,15.90
2023-11-13T17:04:51.175Z,12.88
2023-11-13T17:07:54.048Z,9.07
2023-11-13T17:10:58.371Z,7.88
2023-11-13T17:14:01.199Z,10.20
2023-11-13T17:17:04.210Z,10.63
2023-11-13T17:20:09.313Z,13.02
2023-11-13T17:23:13.013Z,13.03
2023-11-13T17:26:15.682Z,10.98
2023-11-13T17:29:18.419Z,20.80
2023-11-13T17:32:21.410Z,22.95
2023-11-13T17:35:24.237Z,15.68
2023-11-13T17:38:27.055Z,12.23
2023-11-13T17:41:30.415Z,8.45
2023-11-13T17:44:34.059Z,8.73
2023-11-13T17:47:37.110Z,6.68
2023-11-13T17:50:40.309Z,5.60
2023-11-13T17:53:43.140Z,6.93
2023-11-13T17:56:48.885Z,7.22
2023-11-13T17:59:51.663Z,5.68
2023-11-13T18:02:54.751Z,6.55
2023-11-13T18:05:57.515Z,12.32
2023-11-13T18:09:00.518Z,10.32
2023-11-13T18:12:04.663Z,11.52
2023-11-13T18:15:10.574Z,11.87
2023-11-13T18:18:13.548Z,11.05
2023-11-13T18:21:16.363Z,10.82
2023-11-13T18:24:19.772Z,10.33
2023-11-13T18:27:22.623Z,9.98
2023-11-13T18:30:25.678Z,13.77
2023-11-13T18:33:30.944Z,9.25
2023-11-13T18:36:34.691Z,11.38
2023-11-13T18:39:39.055Z,12.73
2023-11-13T18:42:42.288Z,9.80
2023-11-13T18:45:46.690Z,11.17
2023-11-13T18:48:49.454Z,9.10
2023-11-13T18:51:52.334Z,22.05
2023-11-13T18:54:55.118Z,15.33
2023-11-13T18:57:58.702Z,13.15
2023-11-13T19:01:01.626Z,8.43
2023-11-13T19:04:04.916Z,5.85
2023-11-13T19:07:08.480Z,11.70
2023-11-13T19:10:11.271Z,11.38
2023-11-13T19:13:14.508Z,10.80
2023-11-13T19:16:17.317Z,14.37
2023-11-13T19:19:20.055Z,23.75
2023-11-13T19:22:23.126Z,16.77
2023-11-13T19:25:26.714Z,17.50
2023-11-13T19:28:30.072Z,11.18
2023-11-13T19:31:33.115Z,10.38
2023-11-13T19:34:36.278Z,6.47
2023-11-13T19:37:39.025Z,8.00
2023-11-13T19:40:42.926Z,12.32
2023-11-13T19:43:47.746Z,20.88
2023-11-13T19:46:51.588Z,13.47
2023-11-13T19:49:54.694Z,27.08
2023-11-13T19:52:57.686Z,18.70
2023-11-13T19:56:00.990Z,24.60
2023-11-13T19:59:04.880Z,25.40
2023-11-13T20:02:07.933Z,14.57
2023-11-13T20:05:11.123Z,17.33
2023-11-13T20:08:14.423Z,16.65
2023-11-13T20:11:24.388Z,16.05
2023-11-13T20:14:27.463Z,15.40
2023-11-13T20:17:31.692Z,11.53
2023-11-13T20:20:36.666Z,15.57
2023-11-13T20:23:39.340Z,10.75
2023-11-13T20:26:42.407Z,12.63
2023-11-13T20:29:45.887Z,14.48
2023-11-13T20:32:50.452Z,11.32
2023-11-13T20:35:53.910Z,10.57
2023-11-13T20:38:57.684Z,14.18
2023-11-13T20:42:01.044Z,7.95
2023-11-13T20:45:05.979Z,4.57
2023-11-13T20:48:09.814Z,10.53
2023-11-13T20:51:12.714Z,4.72
2023-11-13T20:54:15.760Z,8.65
2023-11-13T20:57:18.607Z,8.07
2023-11-13T21:00:21.637Z,7.47
2023-11-13T21:03:24.692Z,16.52
2023-11-13T21:06:27.559Z,10.95
2023-11-13T21:09:31.567Z,11.82
2023-11-13T21:12:34.939Z,10.13
2023-11-13T21:15:37.933Z,13.55
2023-11-13T21:18:40.633Z,14.97
2023-11-13T21:21:43.312Z,12.93
2023-11-13T21:24:46.065Z,13.18
2023-11-13T21:27:48.786Z,11.67
2023-11-13T21:30:52.187Z,11.20
2023-11-13T21:33:55.211Z,11.52
2023-11-13T21:36:57.943Z,11.82
2023-11-13T21:40:00.671Z,8.23
2023-11-13T21:43:03.335Z,12.15
2023-11-13T21:46:09.340Z,13.98
2023-11-13T21:49:12.061Z,11.77
2023-11-13T21:52:14.984Z,12.63
2023-11-13T21:55:17.812Z,7.32
2023-11-13T21:58:20.878Z,10.40
2023-11-13T22:01:24.785Z,14.00
2023-11-13T22:04:27.850Z,7.22
2023-11-13T22:07:30.565Z,10.40
2023-11-13T22:10:33.919Z,7.40
2023-11-13T22:13:37.699Z,9.57
2023-11-13T22:16:40.480Z,9.27
2023-11-13T22:19:43.218Z,13.17
2023-11-13T22:22:46.030Z,11.60
2023-11-13T22:25:49.006Z,15.07
2023-11-13T22:28:51.792Z,10.73
2023-11-13T22:31:54.616Z,10.45
2023-11-13T22:34:57.448Z,13.55
2023-11-13T22:38:00.248Z,7.85
2023-11-13T22:41:04.477Z,13.80
2023-11-13T22:44:07.876Z,10.10
2023-11-13T22:47:11.907Z,9.57
2023-11-13T22:50:14.648Z,9.53
2023-11-13T22:53:17.390Z,11.90
2023-11-13T22:56:20.177Z,10.77
2023-11-13T22:59:22.816Z,9.60
2023-11-13T23:02:25.575Z,13.27
2023-11-13T23:05:28.654Z,12.30
2023-11-13T23:08:31.427Z,12.32
2023-11-13T23:11:34.117Z,14.13
2023-11-13T23:14:38.410Z,8.07
2023-11-13T23:17:41.830Z,15.50
2023-11-13T23:20:44.672Z,12.53
2023-11-13T23:23:47.747Z,12.43
2023-11-13T23:26:50.463Z,9.30
2023-11-13T23:29:53.087Z,13.60
2023-11-13T23:32:55.924Z,12.20
2023-11-13T23:35:59.130Z,11.15
2023-11-13T23:39:01.826Z,13.18
2023-11-13T23:42:05.069Z,13.60
2023-11-13T23:45:08.248Z,12.13
2023-11-13T23:48:10.906Z,15.38
2023-11-13T23:51:13.665Z,13.17
2023-11-13T23:54:16.324Z,13.18
2023-11-13T23:57:19.051Z,16.17
